Pagrindinis puslapis
METAR-TAF:

METAR-TAF

Oro uostai :

Jakuiba, Bolivija

platuma: 21-57S, ilguma: 063-39W, Aukštis: 645 m

Dabartinis oras

Ataskaita buvo paskelbta 28 minutes, ne 13:00 UTC
Ramus vėjas
Temperatūra 24°C
Drėgmė 74%
Slėgis 1018 hPa
Matomumas 10 km arba daugiau
Mažai debesys ne aukštis 2300 ft
Su prošvaistėmis ne aukštis 7000 ft

METAR: SLYA 281300Z 00000KT 9999 FEW023 BKN070 24/19 Q1018

Laikas: 09:28 (13:28 UTC)

Prognozė

Ataskaita buvo paskelbta 15 valandos ir 28 minutes, ne 22:00 UTC
Prognozė galioja nuo 28 metu 00 UTC su 28 metu 24 UTC
Vėjas kt iš Šiaurės
Matomumas 10 km arba daugiau
Tapsmas
nuo 28 metu 06 UTC su 28 metu 08 UTC
Išsisklaidę debesys ne aukštis 1500 ft
Su prošvaistėmis ne aukštis 7000 ft
Tapsmas
nuo 28 metu 11 UTC su 28 metu 13 UTC
Išsisklaidę debesys ne aukštis 2000 ft
Tapsmas
nuo 28 metu 15 UTC su 28 metu 17 UTC
Vėjas 10 kt iš Rytų

TAF: SLYA 272200Z 2800/2824 00000KT 9999 NSC TX31/2819Z TN17/2811Z BECMG 2806/2808 SCT015 BKN070 BECMG 2811/2813 SCT020 BECMG 2815/2817 09010KT

Orai ataskaitas ir orų prognozės (METAR, TAF).

turimą stotys yra geltonos ir raudonos taškus žemėlapyje.

Perkelti pele per norėdami pamatyti stoties vardą.

Tada spustelėkite, norėdami matyti oro stebėjimo ir prognozės.

Norėdami pakeisti žemėlapį: spustelėkite ant žalios mygtukų su juodo kryžiaus žemyn,; žalią mygtuką su brūkšneliu, jei norite nutolinti; arba žalių rodyklių gretimoms žemėlapius.


METAR-TAF: